sensor_id;sensor_type;location;lat;lon;timestamp;P1;durP1;ratioP1;P2;durP2;ratioP2
25980;SDS011;13772;52.996;9.124;2022-10-31T11:03:01;34.47;;;26.40;;
25980;SDS011;13772;52.996;9.124;2022-10-31T11:07:58;36.70;;;27.20;;
25980;SDS011;13772;52.996;9.124;2022-10-31T11:10:23;39.00;;;27.30;;
25980;SDS011;13772;52.996;9.124;2022-10-31T11:13:30;36.13;;;26.10;;
25980;SDS011;13772;52.996;9.124;2022-10-31T11:15:48;37.05;;;26.92;;
25980;SDS011;13772;52.996;9.124;2022-10-31T11:18:20;36.17;;;26.35;;
25980;SDS011;13772;52.996;9.124;2022-10-31T11:20:50;33.65;;;27.15;;
25980;SDS011;13772;52.996;9.124;2022-10-31T11:23:17;39.55;;;28.77;;
25980;SDS011;13772;52.996;9.124;2022-10-31T11:25:54;35.55;;;28.17;;
25980;SDS011;13772;52.996;9.124;2022-10-31T11:28:20;38.80;;;28.38;;
25980;SDS011;13772;52.996;9.124;2022-10-31T11:30:49;33.92;;;25.70;;
25980;SDS011;13772;52.996;9.124;2022-10-31T11:35:46;35.55;;;24.05;;
25980;SDS011;13772;52.996;9.124;2022-10-31T11:38:15;33.63;;;25.63;;
25980;SDS011;13772;52.996;9.124;2022-10-31T11:40:50;35.88;;;24.63;;
25980;SDS011;13772;52.996;9.124;2022-10-31T11:43:16;36.35;;;25.38;;
25980;SDS011;13772;52.996;9.124;2022-10-31T11:45:42;36.85;;;26.35;;
25980;SDS011;13772;52.996;9.124;2022-10-31T11:48:20;35.92;;;25.83;;
25980;SDS011;13772;52.996;9.124;2022-10-31T11:50:47;40.92;;;26.52;;
25980;SDS011;13772;52.996;9.124;2022-10-31T11:53:15;42.28;;;29.58;;
25980;SDS011;13772;52.996;9.124;2022-10-31T11:55:41;44.05;;;30.30;;
25980;SDS011;13772;52.996;9.124;2022-10-31T11:58:22;40.15;;;28.80;;
25980;SDS011;13772;52.996;9.124;2022-10-31T12:00:49;49.90;;;30.13;;
25980;SDS011;13772;52.996;9.124;2022-10-31T12:08:35;44.05;;;27.17;;
25980;SDS011;13772;52.996;9.124;2022-10-31T12:26:54;46.42;;;28.65;;
25980;SDS011;13772;52.996;9.124;2022-10-31T12:29:26;46.25;;;28.73;;
25980;SDS011;13772;52.996;9.124;2022-10-31T12:34:47;36.83;;;24.55;;
25980;SDS011;13772;52.996;9.124;2022-10-31T12:39:56;31.88;;;23.40;;
25980;SDS011;13772;52.996;9.124;2022-10-31T12:42:30;38.57;;;24.30;;
25980;SDS011;13772;52.996;9.124;2022-10-31T12:47:40;37.63;;;24.55;;
25980;SDS011;13772;52.996;9.124;2022-10-31T12:58:07;42.85;;;25.58;;
25980;SDS011;13772;52.996;9.124;2022-10-31T13:00:35;34.90;;;22.35;;
25980;SDS011;13772;52.996;9.124;2022-10-31T13:03:23;35.92;;;23.08;;
25980;SDS011;13772;52.996;9.124;2022-10-31T13:05:48;36.67;;;23.02;;
25980;SDS011;13772;52.996;9.124;2022-10-31T13:08:17;38.88;;;23.83;;
25980;SDS011;13772;52.996;9.124;2022-10-31T13:10:44;35.08;;;23.38;;
25980;SDS011;13772;52.996;9.124;2022-10-31T13:13:15;39.25;;;23.40;;
25980;SDS011;13772;52.996;9.124;2022-10-31T13:18:42;30.80;;;20.55;;
25980;SDS011;13772;52.996;9.124;2022-10-31T13:21:09;28.70;;;20.55;;
25980;SDS011;13772;52.996;9.124;2022-10-31T13:23:36;33.78;;;21.42;;
25980;SDS011;13772;52.996;9.124;2022-10-31T13:26:48;34.65;;;22.20;;
25980;SDS011;13772;52.996;9.124;2022-10-31T13:28:54;31.85;;;21.60;;
25980;SDS011;13772;52.996;9.124;2022-10-31T13:31:21;36.38;;;22.13;;
25980;SDS011;13772;52.996;9.124;2022-10-31T13:33:47;36.70;;;22.55;;
25980;SDS011;13772;52.996;9.124;2022-10-31T13:38:40;35.58;;;22.92;;
25980;SDS011;13772;52.996;9.124;2022-10-31T13:43:57;34.10;;;22.90;;
25980;SDS011;13772;52.996;9.124;2022-10-31T13:46:25;36.20;;;23.98;;
25980;SDS011;13772;52.996;9.124;2022-10-31T13:48:50;38.10;;;23.70;;
25980;SDS011;13772;52.996;9.124;2022-10-31T13:51:24;36.85;;;23.23;;
25980;SDS011;13772;52.996;9.124;2022-10-31T13:56:20;38.78;;;23.38;;
25980;SDS011;13772;52.996;9.124;2022-10-31T14:01:50;37.30;;;21.55;;
25980;SDS011;13772;52.996;9.124;2022-10-31T14:04:22;41.78;;;25.92;;
25980;SDS011;13772;52.996;9.124;2022-10-31T14:09:18;38.70;;;24.48;;
25980;SDS011;13772;52.996;9.124;2022-10-31T14:11:45;37.33;;;23.67;;
25980;SDS011;13772;52.996;9.124;2022-10-31T14:14:11;37.47;;;23.92;;
25980;SDS011;13772;52.996;9.124;2022-10-31T14:16:36;34.75;;;22.88;;
25980;SDS011;13772;52.996;9.124;2022-10-31T14:24:03;36.97;;;22.55;;
25980;SDS011;13772;52.996;9.124;2022-10-31T14:26:37;35.28;;;22.02;;
25980;SDS011;13772;52.996;9.124;2022-10-31T14:45:05;36.85;;;21.63;;
25980;SDS011;13772;52.996;9.124;2022-10-31T14:47:28;34.22;;;20.85;;
25980;SDS011;13772;52.996;9.124;2022-10-31T14:50:06;31.13;;;20.73;;
25980;SDS011;13772;52.996;9.124;2022-10-31T14:52:35;34.58;;;22.35;;
25980;SDS011;13772;52.996;9.124;2022-10-31T14:55:00;34.85;;;22.98;;
25980;SDS011;13772;52.996;9.124;2022-10-31T14:57:31;35.15;;;21.98;;
25980;SDS011;13772;52.996;9.124;2022-10-31T15:00:01;35.00;;;22.38;;
25980;SDS011;13772;52.996;9.124;2022-10-31T15:04:54;35.63;;;22.75;;
25980;SDS011;13772;52.996;9.124;2022-10-31T15:07:23;40.45;;;22.70;;
25980;SDS011;13772;52.996;9.124;2022-10-31T15:09:56;36.47;;;23.13;;
25980;SDS011;13772;52.996;9.124;2022-10-31T15:12:23;37.63;;;22.48;;
25980;SDS011;13772;52.996;9.124;2022-10-31T15:14:48;32.05;;;19.70;;
25980;SDS011;13772;52.996;9.124;2022-10-31T15:17:13;33.50;;;20.48;;
25980;SDS011;13772;52.996;9.124;2022-10-31T15:19:39;30.98;;;18.80;;
25980;SDS011;13772;52.996;9.124;2022-10-31T15:22:04;30.02;;;19.50;;
25980;SDS011;13772;52.996;9.124;2022-10-31T15:24:32;33.08;;;19.83;;
25980;SDS011;13772;52.996;9.124;2022-10-31T15:26:58;31.75;;;19.73;;
25980;SDS011;13772;52.996;9.124;2022-10-31T15:29:24;34.50;;;19.42;;
25980;SDS011;13772;52.996;9.124;2022-10-31T15:31:53;32.85;;;20.00;;
25980;SDS011;13772;52.996;9.124;2022-10-31T15:34:20;33.38;;;20.77;;
25980;SDS011;13772;52.996;9.124;2022-10-31T15:36:49;32.03;;;20.40;;
25980;SDS011;13772;52.996;9.124;2022-10-31T15:39:15;35.63;;;19.23;;
25980;SDS011;13772;52.996;9.124;2022-10-31T15:41:50;32.17;;;19.42;;
25980;SDS011;13772;52.996;9.124;2022-10-31T15:44:19;31.50;;;19.13;;
25980;SDS011;13772;52.996;9.124;2022-10-31T15:46:51;35.73;;;18.30;;
25980;SDS011;13772;52.996;9.124;2022-10-31T15:49:23;33.80;;;18.85;;
25980;SDS011;13772;52.996;9.124;2022-10-31T15:51:50;34.53;;;20.52;;
25980;SDS011;13772;52.996;9.124;2022-10-31T15:54:15;33.08;;;19.55;;
25980;SDS011;13772;52.996;9.124;2022-10-31T15:56:41;33.95;;;19.30;;
25980;SDS011;13772;52.996;9.124;2022-10-31T15:59:11;34.33;;;19.50;;
25980;SDS011;13772;52.996;9.124;2022-10-31T16:01:39;32.72;;;18.25;;
25980;SDS011;13772;52.996;9.124;2022-10-31T16:04:05;31.52;;;17.88;;
25980;SDS011;13772;52.996;9.124;2022-10-31T16:06:44;33.00;;;17.67;;
25980;SDS011;13772;52.996;9.124;2022-10-31T16:09:22;38.13;;;18.60;;
25980;SDS011;13772;52.996;9.124;2022-10-31T16:11:48;39.85;;;18.73;;
25980;SDS011;13772;52.996;9.124;2022-10-31T16:14:15;49.05;;;19.85;;
25980;SDS011;13772;52.996;9.124;2022-10-31T16:16:45;55.28;;;20.88;;
25980;SDS011;13772;52.996;9.124;2022-10-31T16:19:28;37.15;;;19.45;;
25980;SDS011;13772;52.996;9.124;2022-10-31T16:21:55;33.40;;;18.77;;
25980;SDS011;13772;52.996;9.124;2022-10-31T16:26:47;35.60;;;19.55;;
25980;SDS011;13772;52.996;9.124;2022-10-31T16:37:37;37.90;;;20.08;;
25980;SDS011;13772;52.996;9.124;2022-10-31T16:40:02;35.97;;;20.48;;
25980;SDS011;13772;52.996;9.124;2022-10-31T16:42:27;27.45;;;18.15;;
25980;SDS011;13772;52.996;9.124;2022-10-31T16:44:52;31.67;;;17.75;;
25980;SDS011;13772;52.996;9.124;2022-10-31T16:47:18;25.92;;;16.15;;
25980;SDS011;13772;52.996;9.124;2022-10-31T16:49:44;26.02;;;15.48;;
25980;SDS011;13772;52.996;9.124;2022-10-31T16:52:11;26.13;;;15.40;;
25980;SDS011;13772;52.996;9.124;2022-10-31T16:54:36;31.85;;;18.20;;
25980;SDS011;13772;52.996;9.124;2022-10-31T16:57:02;31.45;;;17.73;;
25980;SDS011;13772;52.996;9.124;2022-10-31T16:59:28;34.60;;;18.98;;
25980;SDS011;13772;52.996;9.124;2022-10-31T17:01:54;30.75;;;15.57;;
25980;SDS011;13772;52.996;9.124;2022-10-31T17:04:19;24.80;;;14.80;;
25980;SDS011;13772;52.996;9.124;2022-10-31T17:06:45;23.23;;;14.10;;
25980;SDS011;13772;52.996;9.124;2022-10-31T17:09:10;26.08;;;13.98;;
25980;SDS011;13772;52.996;9.124;2022-10-31T17:11:36;21.17;;;12.32;;
25980;SDS011;13772;52.996;9.124;2022-10-31T17:14:03;21.30;;;11.38;;
25980;SDS011;13772;52.996;9.124;2022-10-31T17:16:29;18.13;;;11.00;;
25980;SDS011;13772;52.996;9.124;2022-10-31T17:18:54;16.30;;;10.93;;
25980;SDS011;13772;52.996;9.124;2022-10-31T17:21:21;19.05;;;9.85;;
25980;SDS011;13772;52.996;9.124;2022-10-31T17:23:47;17.13;;;9.80;;
25980;SDS011;13772;52.996;9.124;2022-10-31T17:26:12;15.48;;;10.02;;
25980;SDS011;13772;52.996;9.124;2022-10-31T17:28:38;15.57;;;9.52;;
25980;SDS011;13772;52.996;9.124;2022-10-31T17:31:03;16.98;;;9.20;;
25980;SDS011;13772;52.996;9.124;2022-10-31T17:33:28;13.00;;;8.18;;
25980;SDS011;13772;52.996;9.124;2022-10-31T17:35:54;15.80;;;8.82;;
25980;SDS011;13772;52.996;9.124;2022-10-31T17:38:19;15.77;;;8.25;;
25980;SDS011;13772;52.996;9.124;2022-10-31T17:40:44;12.35;;;7.68;;
25980;SDS011;13772;52.996;9.124;2022-10-31T17:43:10;12.40;;;8.02;;
25980;SDS011;13772;52.996;9.124;2022-10-31T17:45:37;13.15;;;7.90;;
25980;SDS011;13772;52.996;9.124;2022-10-31T17:48:03;15.45;;;8.23;;
25980;SDS011;13772;52.996;9.124;2022-10-31T17:50:28;17.50;;;15.63;;
25980;SDS011;13772;52.996;9.124;2022-10-31T17:52:53;16.23;;;10.63;;
25980;SDS011;13772;52.996;9.124;2022-10-31T17:55:19;13.40;;;9.38;;
25980;SDS011;13772;52.996;9.124;2022-10-31T17:57:44;13.88;;;8.50;;
25980;SDS011;13772;52.996;9.124;2022-10-31T18:00:11;15.43;;;8.95;;
25980;SDS011;13772;52.996;9.124;2022-10-31T18:02:37;14.93;;;8.82;;
25980;SDS011;13772;52.996;9.124;2022-10-31T18:05:02;15.05;;;8.27;;
25980;SDS011;13772;52.996;9.124;2022-10-31T18:07:29;12.88;;;8.13;;
25980;SDS011;13772;52.996;9.124;2022-10-31T18:09:55;18.42;;;9.35;;
25980;SDS011;13772;52.996;9.124;2022-10-31T18:12:20;13.55;;;9.48;;
25980;SDS011;13772;52.996;9.124;2022-10-31T18:14:45;15.93;;;8.60;;
25980;SDS011;13772;52.996;9.124;2022-10-31T18:17:11;17.50;;;9.52;;
25980;SDS011;13772;52.996;9.124;2022-10-31T18:19:36;22.08;;;11.18;;
25980;SDS011;13772;52.996;9.124;2022-10-31T18:22:02;17.67;;;11.32;;
25980;SDS011;13772;52.996;9.124;2022-10-31T18:24:27;19.20;;;11.52;;
25980;SDS011;13772;52.996;9.124;2022-10-31T18:26:52;17.35;;;11.38;;
25980;SDS011;13772;52.996;9.124;2022-10-31T18:29:18;19.08;;;12.50;;
25980;SDS011;13772;52.996;9.124;2022-10-31T18:31:43;19.90;;;13.93;;
25980;SDS011;13772;52.996;9.124;2022-10-31T18:34:12;22.85;;;17.15;;
25980;SDS011;13772;52.996;9.124;2022-10-31T18:36:38;25.55;;;15.32;;
25980;SDS011;13772;52.996;9.124;2022-10-31T18:39:03;28.25;;;14.63;;
25980;SDS011;13772;52.996;9.124;2022-10-31T18:41:28;19.35;;;12.15;;
25980;SDS011;13772;52.996;9.124;2022-10-31T18:43:56;16.80;;;11.18;;
25980;SDS011;13772;52.996;9.124;2022-10-31T18:46:23;17.50;;;10.80;;
25980;SDS011;13772;52.996;9.124;2022-10-31T18:48:48;15.80;;;9.52;;
25980;SDS011;13772;52.996;9.124;2022-10-31T18:51:13;17.17;;;11.32;;
25980;SDS011;13772;52.996;9.124;2022-10-31T18:53:39;19.92;;;11.55;;
25980;SDS011;13772;52.996;9.124;2022-10-31T18:56:07;20.20;;;11.35;;
25980;SDS011;13772;52.996;9.124;2022-10-31T18:58:33;17.60;;;10.43;;
25980;SDS011;13772;52.996;9.124;2022-10-31T19:00:58;17.73;;;10.98;;
25980;SDS011;13772;52.996;9.124;2022-10-31T19:03:24;19.98;;;10.77;;
25980;SDS011;13772;52.996;9.124;2022-10-31T19:05:54;24.25;;;11.10;;
25980;SDS011;13772;52.996;9.124;2022-10-31T19:08:20;20.48;;;12.15;;
25980;SDS011;13772;52.996;9.124;2022-10-31T19:10:45;20.45;;;11.32;;
25980;SDS011;13772;52.996;9.124;2022-10-31T19:13:10;17.20;;;11.05;;
25980;SDS011;13772;52.996;9.124;2022-10-31T19:15:36;26.17;;;14.18;;
25980;SDS011;13772;52.996;9.124;2022-10-31T19:18:02;24.83;;;14.63;;
25980;SDS011;13772;52.996;9.124;2022-10-31T19:20:27;24.83;;;13.73;;
25980;SDS011;13772;52.996;9.124;2022-10-31T19:22:52;25.15;;;15.15;;
25980;SDS011;13772;52.996;9.124;2022-10-31T19:25:18;29.73;;;17.38;;
25980;SDS011;13772;52.996;9.124;2022-10-31T19:27:43;27.20;;;15.40;;
25980;SDS011;13772;52.996;9.124;2022-10-31T19:30:09;33.90;;;15.55;;
25980;SDS011;13772;52.996;9.124;2022-10-31T19:32:34;34.40;;;16.63;;
25980;SDS011;13772;52.996;9.124;2022-10-31T19:34:59;27.45;;;15.25;;
25980;SDS011;13772;52.996;9.124;2022-10-31T19:37:25;29.08;;;16.45;;
25980;SDS011;13772;52.996;9.124;2022-10-31T19:39:50;30.05;;;17.58;;
25980;SDS011;13772;52.996;9.124;2022-10-31T19:42:15;37.00;;;17.42;;
25980;SDS011;13772;52.996;9.124;2022-10-31T19:44:41;34.53;;;17.15;;
25980;SDS011;13772;52.996;9.124;2022-10-31T19:47:06;33.28;;;17.35;;
25980;SDS011;13772;52.996;9.124;2022-10-31T19:49:31;43.35;;;19.83;;
25980;SDS011;13772;52.996;9.124;2022-10-31T19:51:57;38.80;;;19.35;;
25980;SDS011;13772;52.996;9.124;2022-10-31T19:54:22;40.70;;;20.52;;
25980;SDS011;13772;52.996;9.124;2022-10-31T19:56:47;37.97;;;21.05;;
25980;SDS011;13772;52.996;9.124;2022-10-31T19:59:13;46.42;;;21.05;;
25980;SDS011;13772;52.996;9.124;2022-10-31T20:01:38;41.92;;;20.98;;
25980;SDS011;13772;52.996;9.124;2022-10-31T20:04:03;41.95;;;22.15;;
25980;SDS011;13772;52.996;9.124;2022-10-31T20:06:46;46.63;;;20.70;;
25980;SDS011;13772;52.996;9.124;2022-10-31T20:09:12;43.47;;;22.05;;
25980;SDS011;13772;52.996;9.124;2022-10-31T20:11:38;46.60;;;22.98;;
25980;SDS011;13772;52.996;9.124;2022-10-31T20:14:04;45.08;;;22.25;;
25980;SDS011;13772;52.996;9.124;2022-10-31T20:16:29;47.67;;;22.92;;
25980;SDS011;13772;52.996;9.124;2022-10-31T20:18:54;48.63;;;22.50;;
25980;SDS011;13772;52.996;9.124;2022-10-31T20:21:23;48.17;;;23.38;;
25980;SDS011;13772;52.996;9.124;2022-10-31T20:23:57;51.40;;;23.02;;
25980;SDS011;13772;52.996;9.124;2022-10-31T20:26:23;54.53;;;24.00;;
25980;SDS011;13772;52.996;9.124;2022-10-31T20:28:48;54.30;;;23.60;;
25980;SDS011;13772;52.996;9.124;2022-10-31T20:31:14;45.65;;;22.90;;
25980;SDS011;13772;52.996;9.124;2022-10-31T20:33:40;48.33;;;23.75;;
25980;SDS011;13772;52.996;9.124;2022-10-31T20:36:06;50.10;;;23.58;;
25980;SDS011;13772;52.996;9.124;2022-10-31T20:38:32;46.15;;;23.30;;
25980;SDS011;13772;52.996;9.124;2022-10-31T20:41:00;48.70;;;24.95;;
25980;SDS011;13772;52.996;9.124;2022-10-31T20:43:26;50.58;;;25.67;;
25980;SDS011;13772;52.996;9.124;2022-10-31T20:45:51;50.38;;;25.48;;
25980;SDS011;13772;52.996;9.124;2022-10-31T20:48:17;53.03;;;26.08;;
25980;SDS011;13772;52.996;9.124;2022-10-31T20:50:44;51.42;;;24.40;;
25980;SDS011;13772;52.996;9.124;2022-10-31T20:53:09;50.10;;;26.05;;
25980;SDS011;13772;52.996;9.124;2022-10-31T20:55:34;47.00;;;24.80;;
25980;SDS011;13772;52.996;9.124;2022-10-31T20:57:59;55.40;;;26.40;;
25980;SDS011;13772;52.996;9.124;2022-10-31T21:00:25;55.58;;;26.05;;
25980;SDS011;13772;52.996;9.124;2022-10-31T21:02:50;56.83;;;26.60;;
25980;SDS011;13772;52.996;9.124;2022-10-31T21:05:15;52.97;;;25.63;;
25980;SDS011;13772;52.996;9.124;2022-10-31T21:07:41;55.45;;;26.95;;
25980;SDS011;13772;52.996;9.124;2022-10-31T21:10:06;53.08;;;26.73;;
25980;SDS011;13772;52.996;9.124;2022-10-31T21:12:41;53.17;;;26.13;;
25980;SDS011;13772;52.996;9.124;2022-10-31T21:15:07;52.28;;;26.73;;
25980;SDS011;13772;52.996;9.124;2022-10-31T21:17:32;51.38;;;26.58;;
25980;SDS011;13772;52.996;9.124;2022-10-31T21:19:57;51.47;;;26.50;;
25980;SDS011;13772;52.996;9.124;2022-10-31T21:22:23;59.70;;;27.92;;
25980;SDS011;13772;52.996;9.124;2022-10-31T21:24:48;56.92;;;27.17;;
25980;SDS011;13772;52.996;9.124;2022-10-31T21:27:13;57.92;;;27.75;;
25980;SDS011;13772;52.996;9.124;2022-10-31T21:29:38;59.42;;;28.50;;
25980;SDS011;13772;52.996;9.124;2022-10-31T21:32:04;64.65;;;29.52;;
25980;SDS011;13772;52.996;9.124;2022-10-31T21:34:29;62.80;;;29.08;;
25980;SDS011;13772;52.996;9.124;2022-10-31T21:36:54;64.82;;;29.70;;
25980;SDS011;13772;52.996;9.124;2022-10-31T21:39:19;61.90;;;28.17;;
25980;SDS011;13772;52.996;9.124;2022-10-31T21:41:45;61.65;;;30.23;;
25980;SDS011;13772;52.996;9.124;2022-10-31T21:44:10;66.85;;;30.83;;
25980;SDS011;13772;52.996;9.124;2022-10-31T21:46:35;65.18;;;30.10;;
25980;SDS011;13772;52.996;9.124;2022-10-31T21:49:03;65.63;;;29.30;;
25980;SDS011;13772;52.996;9.124;2022-10-31T21:51:29;65.85;;;30.77;;
25980;SDS011;13772;52.996;9.124;2022-10-31T21:53:55;65.47;;;29.85;;
25980;SDS011;13772;52.996;9.124;2022-10-31T21:56:40;70.75;;;31.35;;
25980;SDS011;13772;52.996;9.124;2022-10-31T21:59:05;68.63;;;31.48;;
25980;SDS011;13772;52.996;9.124;2022-10-31T22:01:31;70.40;;;32.38;;
25980;SDS011;13772;52.996;9.124;2022-10-31T22:03:56;76.28;;;33.72;;
25980;SDS011;13772;52.996;9.124;2022-10-31T22:06:22;73.95;;;34.15;;
25980;SDS011;13772;52.996;9.124;2022-10-31T22:08:50;75.22;;;34.17;;
25980;SDS011;13772;52.996;9.124;2022-10-31T22:11:16;77.68;;;33.90;;
25980;SDS011;13772;52.996;9.124;2022-10-31T22:13:43;80.78;;;33.80;;
25980;SDS011;13772;52.996;9.124;2022-10-31T22:16:10;76.80;;;34.22;;
25980;SDS011;13772;52.996;9.124;2022-10-31T22:18:36;80.30;;;35.40;;
25980;SDS011;13772;52.996;9.124;2022-10-31T22:21:05;76.75;;;36.03;;
25980;SDS011;13772;52.996;9.124;2022-10-31T22:25:56;73.05;;;33.55;;
25980;SDS011;13772;52.996;9.124;2022-10-31T22:28:21;80.82;;;36.25;;
25980;SDS011;13772;52.996;9.124;2022-10-31T22:30:46;85.95;;;37.47;;
25980;SDS011;13772;52.996;9.124;2022-10-31T22:33:12;86.85;;;36.45;;
25980;SDS011;13772;52.996;9.124;2022-10-31T22:35:37;80.65;;;37.20;;
25980;SDS011;13772;52.996;9.124;2022-10-31T22:38:03;81.88;;;35.75;;
25980;SDS011;13772;52.996;9.124;2022-10-31T22:40:28;94.45;;;38.00;;
25980;SDS011;13772;52.996;9.124;2022-10-31T22:42:53;82.65;;;37.72;;
25980;SDS011;13772;52.996;9.124;2022-10-31T22:45:19;78.13;;;37.05;;
25980;SDS011;13772;52.996;9.124;2022-10-31T22:47:44;82.47;;;36.10;;
25980;SDS011;13772;52.996;9.124;2022-10-31T22:50:09;87.38;;;38.55;;
25980;SDS011;13772;52.996;9.124;2022-10-31T22:52:35;82.05;;;37.15;;
25980;SDS011;13772;52.996;9.124;2022-10-31T22:55:00;82.07;;;35.22;;
25980;SDS011;13772;52.996;9.124;2022-10-31T22:57:25;79.80;;;36.17;;
25980;SDS011;13772;52.996;9.124;2022-10-31T22:59:50;82.47;;;37.50;;
25980;SDS011;13772;52.996;9.124;2022-10-31T23:02:16;82.45;;;37.85;;
25980;SDS011;13772;52.996;9.124;2022-10-31T23:04:41;89.20;;;38.22;;
25980;SDS011;13772;52.996;9.124;2022-10-31T23:07:06;93.50;;;39.95;;
